Time;durP1;ratioP1;P1;durP2;ratioP2;P2;SDS_P1;SDS_P2;PMS_P1;PMS_P2;Temp;Humidity;BMP_temperature;BMP_pressure;BME280_temperature;BME280_humidity;BME280_pressure;Samples;Min_cycle;Max_cycle;Signal;HPM_P1;HPM_P2
2022/06/15 00:00:54;;;;;;;1.20;0.98;;;20.70;52.70;;;;;;5071645;28;20221;-72
2022/06/15 00:03:19;;;;;;;1.45;1.20;;;20.70;52.70;;;;;;5072537;28;20237;-72
2022/06/15 00:05:45;;;;;;;1.10;1.00;;;20.70;52.80;;;;;;5074877;28;20179;-71
2022/06/15 00:08:11;;;;;;;1.35;1.02;;;20.60;52.70;;;;;;5076000;28;20174;-72
2022/06/15 00:10:37;;;;;;;2.28;1.20;;;20.60;52.70;;;;;;5076659;28;20595;-72
2022/06/15 00:13:02;;;;;;;1.80;1.27;;;20.60;52.80;;;;;;5076578;28;20265;-73
2022/06/15 00:15:28;;;;;;;1.08;1.08;;;20.60;52.80;;;;;;5075974;28;20254;-74
2022/06/15 00:17:53;;;;;;;1.08;0.98;;;20.60;52.80;;;;;;5076086;28;20174;-73
2022/06/15 00:20:19;;;;;;;1.92;1.38;;;20.60;52.90;;;;;;5076749;28;20222;-73
2022/06/15 00:22:45;;;;;;;2.03;1.13;;;20.60;52.90;;;;;;5075379;28;20174;-73
2022/06/15 00:25:10;;;;;;;1.42;1.20;;;20.60;52.90;;;;;;5076604;28;20178;-73
2022/06/15 00:27:36;;;;;;;1.17;0.98;;;20.60;52.90;;;;;;5076577;28;20178;-74
2022/06/15 00:30:03;;;;;;;1.20;1.10;;;20.60;52.90;;;;;;5075681;28;20178;-71
2022/06/15 00:32:29;;;;;;;2.33;1.10;;;20.60;53.00;;;;;;5076176;28;20178;-71
2022/06/15 00:34:54;;;;;;;1.42;1.05;;;20.60;53.00;;;;;;5076222;28;20170;-71
2022/06/15 00:37:20;;;;;;;0.95;0.95;;;20.60;53.00;;;;;;5075730;28;20178;-70
2022/06/15 00:39:45;;;;;;;1.67;1.00;;;20.60;53.00;;;;;;5075892;28;20174;-71
2022/06/15 00:42:14;;;;;;;1.30;1.02;;;20.60;53.10;;;;;;5076379;28;20269;-71
2022/06/15 00:44:42;;;;;;;1.23;1.10;;;20.60;53.10;;;;;;5075253;28;20261;-71
2022/06/15 00:47:25;;;;;;;1.00;0.90;;;20.50;53.10;;;;;;5075919;28;20178;-71
2022/06/15 00:49:56;;;;;;;1.40;1.15;;;20.50;53.10;;;;;;5073996;28;20174;-71
2022/06/15 00:52:52;;;;;;;1.20;1.02;;;20.50;53.10;;;;;;5074766;28;20690;-71
2022/06/15 00:55:22;;;;;;;0.95;0.93;;;20.50;53.20;;;;;;5059795;28;20181;-72
2022/06/15 00:57:48;;;;;;;1.42;1.30;;;20.50;53.20;;;;;;5073778;28;20268;-72
2022/06/15 01:00:17;;;;;;;1.33;1.20;;;20.50;53.20;;;;;;5075879;28;20289;-73
2022/06/15 01:02:43;;;;;;;1.10;0.98;;;20.50;53.20;;;;;;5075214;28;20618;-71
2022/06/15 01:05:17;;;;;;;1.10;1.00;;;20.50;53.30;;;;;;5075382;28;20222;-71
2022/06/15 01:07:55;;;;;;;1.10;1.00;;;20.50;53.30;;;;;;5075346;28;20685;-71
2022/06/15 01:10:28;;;;;;;1.80;1.17;;;20.50;53.30;;;;;;5074633;28;20185;-71
2022/06/15 01:13:09;;;;;;;1.88;1.08;;;20.50;53.30;;;;;;5073312;28;20651;-73
2022/06/15 01:15:46;;;;;;;1.02;0.95;;;20.50;53.30;;;;;;5075418;28;20204;-74
2022/06/15 01:18:30;;;;;;;1.35;1.02;;;20.50;53.30;;;;;;5073998;28;20170;-71
2022/06/15 01:21:05;;;;;;;1.75;1.10;;;20.50;53.40;;;;;;5075011;28;20210;-73
2022/06/15 01:23:49;;;;;;;1.52;1.00;;;20.50;53.40;;;;;;5075511;28;20170;-74
2022/06/15 01:26:52;;;;;;;0.82;0.75;;;20.50;53.40;;;;;;5074516;28;20182;-73
2022/06/15 01:29:26;;;;;;;1.08;0.82;;;20.50;53.40;;;;;;5075193;28;20532;-74
2022/06/15 01:32:12;;;;;;;1.02;0.93;;;20.40;53.40;;;;;;5073289;28;20175;-73
2022/06/15 01:34:41;;;;;;;1.75;0.80;;;20.40;53.40;;;;;;5073979;28;20182;-72
2022/06/15 01:37:10;;;;;;;0.95;0.90;;;20.40;53.40;;;;;;5074106;28;20182;-73
2022/06/15 01:39:44;;;;;;;1.05;1.02;;;20.40;53.40;;;;;;5074139;28;20174;-72
2022/06/15 01:42:28;;;;;;;2.03;1.10;;;20.40;53.50;;;;;;5073922;28;20221;-72
2022/06/15 01:44:57;;;;;;;1.10;1.00;;;20.40;53.50;;;;;;5074632;28;20174;-72
2022/06/15 01:47:24;;;;;;;1.48;0.90;;;20.40;53.50;;;;;;5073017;28;20185;-72
2022/06/15 01:50:17;;;;;;;1.20;1.10;;;20.40;53.40;;;;;;5056984;28;20186;-72
2022/06/15 01:52:47;;;;;;;1.23;1.10;;;20.40;53.50;;;;;;5057985;28;20206;-73
2022/06/15 01:55:17;;;;;;;0.90;0.90;;;20.40;53.60;;;;;;5056611;28;20170;-71
2022/06/15 01:57:42;;;;;;;0.95;0.95;;;20.40;53.60;;;;;;5073106;28;20232;-74
2022/06/15 02:00:10;;;;;;;15.70;1.85;;;20.40;53.60;;;;;;5055982;28;20218;-73
2022/06/15 02:02:47;;;;;;;1.15;1.00;;;20.40;53.60;;;;;;5072960;28;20649;-73
2022/06/15 02:05:22;;;;;;;1.70;0.98;;;20.40;53.60;;;;;;5073367;28;20174;-72
2022/06/15 02:08:12;;;;;;;1.38;1.00;;;20.40;53.60;;;;;;5073613;28;20182;-72
2022/06/15 02:10:41;;;;;;;1.42;1.00;;;20.30;53.50;;;;;;5073838;28;20240;-73
2022/06/15 02:13:30;;;;;;;1.10;1.10;;;20.30;53.60;;;;;;5074596;28;20166;-74
2022/06/15 02:16:04;;;;;;;1.45;1.10;;;20.40;53.70;;;;;;5071478;28;20646;-73
2022/06/15 02:18:30;;;;;;;1.45;1.10;;;20.30;53.60;;;;;;5074335;28;20182;-73
2022/06/15 02:21:01;;;;;;;1.30;1.08;;;20.30;53.60;;;;;;5072299;28;20549;-72
2022/06/15 02:23:27;;;;;;;1.10;1.00;;;20.40;53.70;;;;;;5056352;28;20231;-73
2022/06/15 02:25:52;;;;;;;0.73;0.73;;;20.30;53.70;;;;;;5072718;28;20174;-74
2022/06/15 02:28:18;;;;;;;0.95;0.85;;;20.30;53.70;;;;;;5054662;28;20181;-73
2022/06/15 02:30:44;;;;;;;1.20;1.10;;;20.30;53.70;;;;;;5056021;28;20185;-73
2022/06/15 02:33:23;;;;;;;1.10;1.00;;;20.30;53.70;;;;;;5072838;28;20167;-72
2022/06/15 02:35:49;;;;;;;1.20;1.10;;;20.30;53.70;;;;;;5073189;28;20214;-71
2022/06/15 02:38:14;;;;;;;1.35;1.15;;;20.30;53.70;;;;;;5074050;28;20635;-72
2022/06/15 02:40:40;;;;;;;1.13;0.80;;;20.30;53.80;;;;;;5073717;28;20569;-72
2022/06/15 02:43:05;;;;;;;1.17;1.15;;;20.30;53.80;;;;;;5073325;28;20630;-72
2022/06/15 02:45:34;;;;;;;1.58;1.48;;;20.30;53.80;;;;;;5072617;28;20526;-72
2022/06/15 02:48:00;;;;;;;0.88;0.88;;;20.30;53.80;;;;;;5072405;28;21010;-71
2022/06/15 02:50:28;;;;;;;1.00;0.93;;;20.30;53.80;;;;;;5054575;28;20645;-72
2022/06/15 02:52:59;;;;;;;1.33;1.00;;;20.30;53.80;;;;;;5072237;28;20534;-73
2022/06/15 02:55:25;;;;;;;1.60;0.90;;;20.30;53.90;;;;;;5056563;28;20205;-72
2022/06/15 02:57:54;;;;;;;0.90;0.90;;;20.30;53.90;;;;;;5072597;28;20538;-74
2022/06/15 03:00:21;;;;;;;0.90;0.90;;;20.30;53.90;;;;;;5072173;28;20206;-72
2022/06/15 03:02:46;;;;;;;1.10;0.90;;;20.30;53.90;;;;;;5073091;28;20233;-72
2022/06/15 03:05:12;;;;;;;1.10;0.90;;;20.20;53.80;;;;;;5072844;28;20197;-71
2022/06/15 03:07:37;;;;;;;1.45;0.95;;;20.30;53.90;;;;;;5073255;28;20542;-71
2022/06/15 03:10:04;;;;;;;1.02;1.00;;;20.20;53.90;;;;;;5073488;28;20177;-72
2022/06/15 03:12:29;;;;;;;1.90;1.30;;;20.20;53.90;;;;;;5072555;28;20174;-72
2022/06/15 03:14:55;;;;;;;1.35;1.25;;;20.20;54.00;;;;;;5072951;28;20178;-73
2022/06/15 03:17:21;;;;;;;0.98;0.95;;;20.20;53.90;;;;;;5072772;28;20622;-73
2022/06/15 03:19:46;;;;;;;1.30;1.20;;;20.20;54.00;;;;;;5072980;28;20213;-74
2022/06/15 03:22:12;;;;;;;0.65;0.65;;;20.20;54.00;;;;;;5073297;28;20252;-72
2022/06/15 03:24:37;;;;;;;1.15;0.90;;;20.20;53.90;;;;;;5072337;28;20194;-73
2022/06/15 03:27:03;;;;;;;0.80;0.80;;;20.20;54.00;;;;;;5073049;28;20265;-74
2022/06/15 03:29:30;;;;;;;1.10;1.00;;;20.20;54.00;;;;;;5073096;28;20598;-72
2022/06/15 03:31:56;;;;;;;1.00;0.90;;;20.20;54.00;;;;;;5072296;28;20179;-72
2022/06/15 03:34:21;;;;;;;1.23;1.13;;;20.20;54.10;;;;;;5072992;28;20581;-71
2022/06/15 03:36:47;;;;;;;1.25;1.15;;;20.20;54.10;;;;;;5072560;28;20219;-71
2022/06/15 03:39:12;;;;;;;1.00;1.00;;;20.20;54.00;;;;;;5072274;28;20224;-73
2022/06/15 03:41:38;;;;;;;1.45;0.90;;;20.20;54.10;;;;;;5072390;28;20206;-72
2022/06/15 03:44:03;;;;;;;1.15;0.88;;;20.20;54.10;;;;;;5072865;28;20209;-72
2022/06/15 03:46:29;;;;;;;1.73;1.38;;;20.20;54.10;;;;;;5072359;28;20209;-72
2022/06/15 03:48:54;;;;;;;1.00;1.00;;;20.20;54.00;;;;;;5072692;28;20684;-71
2022/06/15 03:51:21;;;;;;;1.30;1.13;;;20.20;54.10;;;;;;5072933;28;20562;-71
2022/06/15 03:53:46;;;;;;;1.15;1.10;;;20.20;54.10;;;;;;5071676;28;20190;-71
2022/06/15 03:56:12;;;;;;;1.33;1.23;;;20.20;54.10;;;;;;5072775;28;20715;-73
2022/06/15 03:58:38;;;;;;;0.98;0.88;;;20.20;54.10;;;;;;5072464;28;20640;-73
2022/06/15 04:01:03;;;;;;;0.90;0.90;;;20.20;54.10;;;;;;5071943;28;20312;-72
2022/06/15 04:03:29;;;;;;;1.00;1.00;;;20.20;54.10;;;;;;5072591;28;20305;-72
2022/06/15 04:05:56;;;;;;;1.75;0.90;;;20.20;54.10;;;;;;5072325;28;20206;-70
2022/06/15 04:08:38;;;;;;;0.88;0.88;;;20.20;54.10;;;;;;5070880;28;20171;-72
2022/06/15 04:14:05;;;;;;;1.25;1.15;;;20.20;54.10;;;;;;5072055;28;20228;-73
2022/06/15 04:16:31;;;;;;;1.20;1.10;;;20.20;54.00;;;;;;5072572;28;20633;-73
2022/06/15 04:19:02;;;;;;;1.20;1.10;;;20.20;54.10;;;;;;5071128;28;20178;-73
2022/06/15 04:21:27;;;;;;;1.08;0.90;;;20.20;54.70;;;;;;5071690;28;20264;-72
2022/06/15 04:23:53;;;;;;;1.48;1.00;;;20.20;54.00;;;;;;5072113;28;20183;-73
2022/06/15 04:26:18;;;;;;;1.02;0.90;;;20.20;54.00;;;;;;5072373;28;20213;-71
2022/06/15 04:28:44;;;;;;;0.95;0.85;;;20.20;54.00;;;;;;5070347;28;20195;-73
2022/06/15 04:31:10;;;;;;;0.95;0.95;;;20.20;54.00;;;;;;5072494;28;20585;-71
2022/06/15 04:33:35;;;;;;;0.98;0.98;;;20.20;54.10;;;;;;5072155;28;20205;-70
2022/06/15 04:36:01;;;;;;;1.33;1.20;;;20.20;54.10;;;;;;5071541;28;20178;-70
2022/06/15 04:38:26;;;;;;;1.67;1.23;;;20.20;54.00;;;;;;5054504;28;20170;-70
2022/06/15 04:40:52;;;;;;;1.08;1.08;;;20.20;54.10;;;;;;5072100;28;20256;-71
2022/06/15 04:43:17;;;;;;;0.80;0.80;;;20.20;54.00;;;;;;5071739;28;20167;-71
2022/06/15 04:45:43;;;;;;;0.80;0.80;;;20.20;54.00;;;;;;5072117;28;20177;-71
2022/06/15 04:48:11;;;;;;;0.90;0.90;;;20.20;54.60;;;;;;5072165;28;20182;-72
2022/06/15 04:50:37;;;;;;;0.95;0.80;;;20.20;54.00;;;;;;5071214;28;20175;-71
2022/06/15 04:53:05;;;;;;;0.90;0.90;;;20.20;54.00;;;;;;5074594;28;20182;-72
2022/06/15 04:55:30;;;;;;;1.27;1.00;;;20.30;54.00;;;;;;5075992;28;20223;-72
2022/06/15 04:57:58;;;;;;;0.93;0.93;;;20.20;54.00;;;;;;5075089;28;20680;-72
2022/06/15 05:00:24;;;;;;;1.20;1.10;;;20.20;54.00;;;;;;5075772;28;20282;-71
2022/06/15 05:02:50;;;;;;;0.90;0.90;;;20.20;54.00;;;;;;5074779;28;20264;-71
2022/06/15 05:05:15;;;;;;;1.27;1.10;;;20.20;54.00;;;;;;5075584;28;20676;-71
2022/06/15 05:07:41;;;;;;;0.90;0.90;;;20.30;54.00;;;;;;5075595;28;20170;-71
2022/06/15 05:10:08;;;;;;;1.02;1.02;;;20.30;54.10;;;;;;5074892;28;20265;-71
2022/06/15 05:12:34;;;;;;;0.90;0.90;;;20.20;54.00;;;;;;5074546;28;20175;-73
2022/06/15 05:15:00;;;;;;;1.95;1.00;;;20.20;54.00;;;;;;5075445;28;20373;-73
2022/06/15 05:17:25;;;;;;;1.00;1.00;;;20.30;54.00;;;;;;5074963;28;20175;-73
2022/06/15 05:19:51;;;;;;;0.90;0.90;;;20.20;54.00;;;;;;5075018;28;20178;-72
2022/06/15 05:22:16;;;;;;;1.08;0.98;;;20.20;54.00;;;;;;5075566;28;20572;-72
2022/06/15 05:24:42;;;;;;;2.20;1.30;;;20.30;54.10;;;;;;5074611;28;20656;-73
2022/06/15 05:27:08;;;;;;;1.65;1.08;;;20.20;54.10;;;;;;5075443;28;20171;-72
2022/06/15 05:29:36;;;;;;;1.67;1.17;;;20.20;54.00;;;;;;5075253;28;20174;-71
2022/06/15 05:32:04;;;;;;;1.00;0.95;;;20.30;54.10;;;;;;5074440;28;20200;-70
2022/06/15 05:34:29;;;;;;;1.33;1.13;;;20.30;54.00;;;;;;5075123;28;20178;-70
2022/06/15 05:36:55;;;;;;;0.90;0.90;;;20.30;54.10;;;;;;5074735;28;20190;-71
2022/06/15 05:39:20;;;;;;;1.08;1.05;;;20.30;54.10;;;;;;5074581;28;20163;-71
2022/06/15 05:41:49;;;;;;;1.98;1.33;;;20.30;54.20;;;;;;5074740;28;20214;-70
2022/06/15 05:46:42;;;;;;;0.93;0.93;;;20.30;54.10;;;;;;5074107;28;20639;-71
2022/06/15 05:49:08;;;;;;;0.80;0.80;;;20.30;54.10;;;;;;5074895;28;20181;-71
2022/06/15 05:51:34;;;;;;;1.20;1.10;;;20.30;54.10;;;;;;5075056;28;20178;-72
2022/06/15 05:53:59;;;;;;;0.90;0.90;;;20.30;54.20;;;;;;5074118;28;20178;-70
2022/06/15 05:56:25;;;;;;;1.27;1.17;;;20.30;54.10;;;;;;5074865;28;20566;-72
2022/06/15 05:58:51;;;;;;;1.05;1.00;;;20.30;54.10;;;;;;5074355;28;20535;-72
2022/06/15 06:01:43;;;;;;;0.98;0.88;;;20.30;54.10;;;;;;5074064;28;20194;-70
2022/06/15 06:04:14;;;;;;;1.23;0.90;;;20.30;54.10;;;;;;5073142;28;20583;-70
2022/06/15 06:06:40;;;;;;;1.20;1.10;;;20.30;54.10;;;;;;5072484;28;20767;-70
2022/06/15 06:09:05;;;;;;;1.27;1.10;;;20.30;54.10;;;;;;5074650;28;20271;-71
2022/06/15 06:11:31;;;;;;;0.88;0.88;;;20.30;54.00;;;;;;5074655;28;20178;-72
2022/06/15 06:13:56;;;;;;;1.10;0.80;;;20.30;54.10;;;;;;5073434;28;20269;-72
2022/06/15 06:16:22;;;;;;;1.10;0.98;;;20.30;54.00;;;;;;5074397;28;20257;-73
2022/06/15 06:18:47;;;;;;;1.10;1.10;;;20.30;54.00;;;;;;5074165;28;20194;-72
2022/06/15 06:21:13;;;;;;;1.20;1.00;;;20.30;54.00;;;;;;5073679;28;20221;-72
2022/06/15 06:23:39;;;;;;;1.38;1.00;;;20.30;54.00;;;;;;5074095;28;20174;-73
2022/06/15 06:26:04;;;;;;;1.25;0.98;;;20.30;54.10;;;;;;5074044;28;20182;-72
2022/06/15 06:28:31;;;;;;;1.23;1.00;;;20.30;54.00;;;;;;5055697;28;20174;-72
2022/06/15 06:30:58;;;;;;;0.98;0.98;;;20.30;54.10;;;;;;5073790;28;20194;-71
2022/06/15 06:33:27;;;;;;;0.95;0.95;;;20.30;54.10;;;;;;5073916;28;20200;-69
2022/06/15 06:35:54;;;;;;;1.00;0.90;;;20.30;54.10;;;;;;5073383;28;20171;-70
2022/06/15 06:38:21;;;;;;;0.80;0.80;;;20.30;54.20;;;;;;5072842;28;20273;-70
2022/06/15 06:40:48;;;;;;;0.80;0.80;;;20.30;54.10;;;;;;5073624;28;20206;-71
2022/06/15 06:43:13;;;;;;;0.90;0.90;;;20.40;54.20;;;;;;5073078;28;20178;-71
2022/06/15 06:45:39;;;;;;;0.98;0.90;;;20.30;54.10;;;;;;5073467;28;20545;-71
2022/06/15 06:48:05;;;;;;;1.02;0.88;;;20.40;54.20;;;;;;5072639;28;20641;-70
2022/06/15 06:50:30;;;;;;;1.08;1.00;;;20.40;54.20;;;;;;5072908;28;20202;-70
2022/06/15 06:52:56;;;;;;;0.90;0.90;;;20.40;54.20;;;;;;5073321;28;20182;-70
2022/06/15 06:55:24;;;;;;;0.80;0.80;;;20.40;54.20;;;;;;5073163;28;20641;-72
2022/06/15 06:57:54;;;;;;;0.90;0.90;;;20.40;54.20;;;;;;5073150;28;20235;-71
2022/06/15 07:00:19;;;;;;;0.90;0.90;;;20.40;54.20;;;;;;5073650;28;20205;-71
2022/06/15 07:02:45;;;;;;;0.95;0.95;;;20.40;54.20;;;;;;5072409;28;20577;-70
2022/06/15 07:05:10;;;;;;;0.80;0.80;;;20.40;54.20;;;;;;5073530;28;20656;-71
2022/06/15 07:07:36;;;;;;;0.70;0.70;;;20.40;54.20;;;;;;5073433;28;20185;-71
2022/06/15 07:10:01;;;;;;;0.93;0.88;;;20.50;54.20;;;;;;5072577;28;20181;-70
2022/06/15 07:12:27;;;;;;;0.88;0.88;;;20.50;54.20;;;;;;5073432;28;20186;-72
2022/06/15 07:14:52;;;;;;;1.42;1.27;;;20.50;54.20;;;;;;5072371;28;20698;-72
2022/06/15 07:17:18;;;;;;;1.98;1.02;;;20.50;54.20;;;;;;5072633;28;20182;-72
2022/06/15 07:19:44;;;;;;;1.30;1.00;;;20.50;54.20;;;;;;5072960;28;20170;-74
2022/06/15 07:22:09;;;;;;;3.10;1.02;;;20.50;54.40;;;;;;5073160;28;20276;-74
2022/06/15 07:24:35;;;;;;;2.85;1.05;;;20.50;54.40;;;;;;5072271;28;20171;-74
2022/06/15 07:27:00;;;;;;;2.78;1.40;;;20.50;54.40;;;;;;5073007;28;20301;-74
2022/06/15 07:29:26;;;;;;;2.17;1.10;;;20.50;54.20;;;;;;5073049;28;20257;-74
2022/06/15 07:31:54;;;;;;;1.33;1.20;;;20.50;54.20;;;;;;5072044;28;20257;-73
2022/06/15 07:34:20;;;;;;;1.85;1.20;;;20.50;54.20;;;;;;5073005;28;20178;-72
2022/06/15 07:36:46;;;;;;;1.77;1.35;;;20.50;54.20;;;;;;5072624;28;20177;-73
2022/06/15 07:39:14;;;;;;;1.35;1.10;;;20.50;54.20;;;;;;5071116;28;20174;-73
2022/06/15 07:41:39;;;;;;;2.67;1.38;;;20.60;54.20;;;;;;5072471;28;20216;-65
2022/06/15 07:44:05;;;;;;;4.28;1.02;;;20.60;54.20;;;;;;5073001;28;20166;-71
2022/06/15 07:46:30;;;;;;;2.50;1.20;;;20.60;54.20;;;;;;5072376;28;20194;-71
2022/06/15 07:51:43;;;;;;;1.08;1.00;;;20.70;54.10;;;;;;5071009;28;20181;-72
2022/06/15 07:54:10;;;;;;;2.38;1.00;;;20.80;54.20;;;;;;5072722;28;20182;-72
2022/06/15 07:56:36;;;;;;;1.85;1.40;;;20.80;54.20;;;;;;5072753;28;20257;-74
2022/06/15 07:59:02;;;;;;;1.98;1.00;;;20.80;54.20;;;;;;5071847;28;20551;-72
2022/06/15 08:01:27;;;;;;;3.33;1.35;;;20.80;54.20;;;;;;5072624;28;20632;-72
2022/06/15 08:03:54;;;;;;;1.33;1.23;;;20.90;54.20;;;;;;5072272;28;20257;-72
2022/06/15 08:06:20;;;;;;;2.60;1.10;;;20.90;54.20;;;;;;5072042;28;20178;-72
2022/06/15 08:08:46;;;;;;;2.65;1.45;;;20.90;54.20;;;;;;5054546;28;20642;-70
2022/06/15 08:11:11;;;;;;;3.30;1.23;;;20.90;54.40;;;;;;5072889;28;20573;-73
2022/06/15 08:13:37;;;;;;;3.53;1.40;;;21.00;54.40;;;;;;5071641;28;20162;-74
2022/06/15 08:16:03;;;;;;;2.50;1.27;;;21.00;54.40;;;;;;5072587;28;20230;-72
2022/06/15 08:18:30;;;;;;;2.70;1.30;;;21.10;54.40;;;;;;5054698;28;20179;-73
2022/06/15 08:20:58;;;;;;;3.15;1.10;;;21.10;54.30;;;;;;5053700;28;20202;-74
2022/06/15 08:23:24;;;;;;;2.92;1.35;;;21.10;54.30;;;;;;5072331;28;20209;-72
2022/06/15 08:25:52;;;;;;;2.78;1.48;;;21.10;54.40;;;;;;5071147;28;20183;-73
2022/06/15 08:28:19;;;;;;;2.33;1.23;;;21.10;54.30;;;;;;5073970;28;20232;-71
2022/06/15 08:30:45;;;;;;;1.60;1.10;;;21.10;54.30;;;;;;5074940;28;20181;-72
2022/06/15 08:33:10;;;;;;;1.75;1.15;;;21.10;54.30;;;;;;5076423;28;20174;-71
2022/06/15 08:35:36;;;;;;;2.05;1.10;;;21.10;54.30;;;;;;5075383;28;20166;-70
2022/06/15 08:38:03;;;;;;;3.42;1.33;;;21.20;54.40;;;;;;5076063;28;20551;-71
2022/06/15 08:40:31;;;;;;;3.00;1.10;;;21.20;54.40;;;;;;5076384;28;20229;-71
2022/06/15 08:43:17;;;;;;;1.65;0.90;;;21.20;54.40;;;;;;5057658;28;20182;-71
2022/06/15 08:45:48;;;;;;;9.15;1.17;;;21.20;54.40;;;;;;5075904;28;20179;-72
2022/06/15 08:48:36;;;;;;;1.05;0.98;;;21.20;54.40;;;;;;5074169;28;20309;-72
2022/06/15 08:51:14;;;;;;;1.98;1.00;;;21.20;54.40;;;;;;5074890;28;20178;-74
2022/06/15 08:53:46;;;;;;;2.72;1.25;;;21.30;54.40;;;;;;5058526;28;20280;-73
2022/06/15 08:56:19;;;;;;;1.83;1.08;;;21.30;54.50;;;;;;5075236;28;20171;-71
2022/06/15 08:59:02;;;;;;;3.28;1.23;;;21.30;54.50;;;;;;5057883;28;20178;-73
2022/06/15 09:01:51;;;;;;;2.08;1.33;;;21.30;54.60;;;;;;5059092;28;20672;-74
2022/06/15 09:04:34;;;;;;;2.90;1.27;;;21.30;54.60;;;;;;5073951;28;20287;-72
2022/06/15 09:07:10;;;;;;;2.40;1.27;;;21.30;54.60;;;;;;5072377;28;20648;-67
2022/06/15 09:09:45;;;;;;;4.35;1.45;;;21.30;54.60;;;;;;5061256;28;20174;-68
2022/06/15 09:12:53;;;;;;;1.60;1.10;;;21.30;54.70;;;;;;5067008;28;20181;-68
2022/06/15 09:15:47;;;;;;;3.35;1.27;;;21.30;54.40;;;;;;5042242;28;20182;-68
2022/06/15 09:18:24;;;;;;;2.90;1.00;;;21.30;54.30;;;;;;5033870;28;20190;-68
2022/06/15 09:21:11;;;;;;;2.40;1.38;;;21.30;54.20;;;;;;5034203;28;20619;-68
2022/06/15 09:24:01;;;;;;;2.45;1.13;;;21.30;54.20;;;;;;5029618;28;20215;-68
2022/06/15 09:26:41;;;;;;;3.22;1.33;;;21.30;54.10;;;;;;5034683;28;20174;-68
2022/06/15 09:29:14;;;;;;;2.58;1.25;;;21.30;54.10;;;;;;5034195;28;20168;-67
2022/06/15 09:31:56;;;;;;;3.30;1.60;;;21.30;54.00;;;;;;5033345;28;20186;-68
2022/06/15 09:34:37;;;;;;;1.95;1.20;;;21.40;54.00;;;;;;5035432;28;20225;-66
2022/06/15 09:37:05;;;;;;;2.70;1.15;;;21.40;54.00;;;;;;5034092;28;20180;-67
2022/06/15 09:39:32;;;;;;;2.25;1.48;;;21.40;53.90;;;;;;5034347;28;20206;-70
2022/06/15 09:42:20;;;;;;;5.03;1.38;;;21.40;53.80;;;;;;5049962;28;20234;-70
2022/06/15 09:45:27;;;;;;;2.45;0.90;;;21.40;53.80;;;;;;5073009;28;20216;-70
2022/06/15 09:48:02;;;;;;;2.85;1.23;;;21.40;53.80;;;;;;5071962;28;20205;-75
2022/06/15 09:50:45;;;;;;;2.60;1.23;;;21.50;54.00;;;;;;5074326;28;20174;-75
2022/06/15 09:53:38;;;;;;;3.15;1.23;;;21.50;53.90;;;;;;5074477;28;20261;-74
2022/06/15 09:56:09;;;;;;;4.32;1.20;;;21.60;53.90;;;;;;5058698;28;20182;-74
2022/06/15 09:58:38;;;;;;;3.83;1.77;;;21.60;54.00;;;;;;5044474;28;20175;-73
2022/06/15 10:01:04;;;;;;;4.47;1.42;;;21.60;54.00;;;;;;5053296;28;20214;-73
2022/06/15 10:03:38;;;;;;;3.88;1.27;;;21.60;54.00;;;;;;5052962;28;20594;-73
2022/06/15 10:06:32;;;;;;;2.78;1.10;;;21.60;54.00;;;;;;5052802;28;20213;-74
2022/06/15 10:08:58;;;;;;;2.70;1.40;;;21.70;54.10;;;;;;5053191;28;20255;-73
2022/06/15 10:11:43;;;;;;;1.52;1.10;;;21.70;54.00;;;;;;5053303;28;20203;-74
2022/06/15 10:14:31;;;;;;;2.17;1.05;;;21.70;54.00;;;;;;5052744;28;20171;-74
2022/06/15 10:17:17;;;;;;;2.25;1.33;;;21.80;54.00;;;;;;5069118;28;20175;-75
2022/06/15 10:19:45;;;;;;;2.85;1.27;;;21.70;54.00;;;;;;5073561;28;20182;-74
2022/06/15 10:22:18;;;;;;;2.72;1.30;;;21.80;54.00;;;;;;5056662;28;20206;-74
2022/06/15 10:24:43;;;;;;;1.30;1.20;;;21.80;54.00;;;;;;5073122;28;20206;-74
2022/06/15 10:27:21;;;;;;;1.33;1.00;;;21.80;54.10;;;;;;5055620;28;20213;-74
2022/06/15 10:30:06;;;;;;;3.42;1.38;;;21.80;54.00;;;;;;5073939;28;20676;-72
2022/06/15 10:32:32;;;;;;;3.03;1.48;;;21.80;54.10;;;;;;5074173;28;20178;-72
2022/06/15 10:35:15;;;;;;;3.25;1.30;;;21.80;54.00;;;;;;5072061;28;20175;-72
2022/06/15 10:37:47;;;;;;;3.03;1.20;;;21.80;54.00;;;;;;5073775;28;20308;-73
2022/06/15 10:40:24;;;;;;;1.40;1.30;;;21.90;54.00;;;;;;5072618;28;20667;-71
2022/06/15 10:42:53;;;;;;;1.42;1.33;;;21.90;54.00;;;;;;5073127;28;20186;-72
2022/06/15 10:45:22;;;;;;;2.92;1.08;;;21.90;54.00;;;;;;5072971;28;20175;-73
2022/06/15 10:47:55;;;;;;;3.53;1.08;;;21.90;54.00;;;;;;5071757;28;20178;-73
2022/06/15 10:51:00;;;;;;;2.05;1.27;;;21.90;53.80;;;;;;5072824;28;20579;-75
2022/06/15 10:53:44;;;;;;;6.00;1.42;;;21.90;53.60;;;;;;5059569;28;20266;-74
2022/06/15 11:02:18;;;;;;;1.73;1.15;;;21.90;53.30;;;;;;5072720;28;20221;-71
2022/06/15 11:04:44;;;;;;;1.63;1.27;;;21.90;53.30;;;;;;5073201;28;20244;-72
2022/06/15 11:07:15;;;;;;;4.22;1.75;;;21.90;53.20;;;;;;5073324;28;20178;-72
2022/06/15 11:09:43;;;;;;;1.40;1.20;;;21.80;53.20;;;;;;5072449;28;20167;-74
2022/06/15 11:12:27;;;;;;;4.28;1.63;;;21.90;53.20;;;;;;5072120;28;20603;-74
2022/06/15 11:15:14;;;;;;;2.35;1.45;;;21.90;53.20;;;;;;5073205;28;20174;-72
2022/06/15 11:18:09;;;;;;;2.25;1.23;;;21.90;53.00;;;;;;5031601;28;20187;-75
2022/06/15 11:21:16;;;;;;;4.43;1.23;;;21.90;53.00;;;;;;5031016;28;20623;-75
2022/06/15 11:23:55;;;;;;;2.65;1.25;;;22.00;53.00;;;;;;5030818;28;20187;-73
2022/06/15 11:26:57;;;;;;;3.00;1.30;;;22.00;53.00;;;;;;5032051;28;20172;-74
2022/06/15 11:30:05;;;;;;;4.95;1.40;;;22.00;53.00;;;;;;5032390;28;20172;-74
2022/06/15 11:32:59;;;;;;;2.55;1.23;;;22.00;52.90;;;;;;5031907;28;20187;-72
2022/06/15 11:35:40;;;;;;;3.83;1.25;;;22.00;52.70;;;;;;5033240;28;20175;-71
2022/06/15 11:38:31;;;;;;;1.55;1.17;;;22.00;53.30;;;;;;5031248;28;20651;-73
2022/06/15 11:41:07;;;;;;;2.00;1.30;;;22.00;52.60;;;;;;5031681;28;20218;-72
2022/06/15 11:43:37;;;;;;;3.13;1.52;;;22.00;52.50;;;;;;5032212;28;20168;-71
2022/06/15 11:46:11;;;;;;;1.85;1.65;;;22.00;52.40;;;;;;5030961;28;20634;-73
2022/06/15 11:48:58;;;;;;;1.77;1.33;;;22.00;52.30;;;;;;5032871;28;20254;-72
2022/06/15 11:51:39;;;;;;;3.35;1.65;;;22.10;52.20;;;;;;5031039;28;20255;-73
2022/06/15 11:54:23;;;;;;;5.68;1.60;;;22.10;52.20;;;;;;5031704;28;20186;-73
2022/06/15 11:56:56;;;;;;;1.83;1.30;;;22.10;52.00;;;;;;5032748;28;20233;-72
2022/06/15 11:59:30;;;;;;;3.08;1.42;;;22.10;52.00;;;;;;5031028;28;20263;-71
2022/06/15 12:02:07;;;;;;;1.90;1.30;;;22.10;51.90;;;;;;5031310;28;20242;-71
2022/06/15 12:04:48;;;;;;;1.92;1.13;;;22.20;51.90;;;;;;5031439;28;20223;-70
2022/06/15 12:07:39;;;;;;;2.05;1.45;;;22.20;51.80;;;;;;5032390;28;20192;-71
2022/06/15 12:10:23;;;;;;;3.78;1.65;;;22.20;51.80;;;;;;5031363;28;20175;-74
2022/06/15 12:12:51;;;;;;;2.13;1.30;;;22.20;51.70;;;;;;5030211;28;20187;-74
2022/06/15 12:15:33;;;;;;;1.65;1.25;;;22.20;51.70;;;;;;5034744;28;20587;-75
2022/06/15 12:18:17;;;;;;;2.40;1.30;;;22.30;51.70;;;;;;5072298;28;20246;-75
2022/06/15 12:20:52;;;;;;;3.53;1.38;;;22.30;51.70;;;;;;5071298;28;20301;-75
2022/06/15 12:23:23;;;;;;;4.20;1.90;;;22.30;51.60;;;;;;5071639;28;20229;-74
2022/06/15 12:26:20;;;;;;;1.83;1.40;;;22.30;51.60;;;;;;5072315;28;20183;-74
2022/06/15 12:29:07;;;;;;;5.95;1.73;;;22.40;51.70;;;;;;5071124;28;20243;-74
2022/06/15 12:31:46;;;;;;;3.13;1.30;;;22.40;51.90;;;;;;5072782;28;20196;-72
2022/06/15 12:34:25;;;;;;;4.22;1.48;;;22.40;51.90;;;;;;5072119;28;20175;-72
2022/06/15 12:36:59;;;;;;;2.70;1.35;;;22.40;51.90;;;;;;5055852;28;20170;-72
2022/06/15 12:39:33;;;;;;;4.18;1.50;;;22.40;52.00;;;;;;5071269;28;20173;-72
2022/06/15 12:42:12;;;;;;;2.30;1.20;;;22.40;52.00;;;;;;5070020;28;20292;-73
2022/06/15 12:44:50;;;;;;;2.90;1.58;;;22.40;52.00;;;;;;5072163;28;20630;-73
2022/06/15 12:47:20;;;;;;;3.05;1.48;;;22.50;52.00;;;;;;5070513;28;20170;-73
2022/06/15 12:50:04;;;;;;;1.70;1.40;;;22.50;52.00;;;;;;5054307;28;20669;-74
2022/06/15 12:52:55;;;;;;;2.40;1.40;;;22.50;51.90;;;;;;5072494;28;20177;-73
2022/06/15 12:55:42;;;;;;;1.95;1.08;;;22.60;52.00;;;;;;5071630;28;20562;-72
2022/06/15 12:58:16;;;;;;;3.50;1.77;;;22.60;51.90;;;;;;5071160;28;20178;-72
2022/06/15 13:00:42;;;;;;;1.85;1.50;;;22.70;52.30;;;;;;5071857;28;20286;-70
2022/06/15 13:03:20;;;;;;;2.00;1.50;;;22.70;52.30;;;;;;5071243;28;20222;-70
2022/06/15 13:05:45;;;;;;;2.42;1.70;;;22.70;52.30;;;;;;5071764;28;20181;-72
2022/06/15 13:08:17;;;;;;;3.10;1.92;;;22.70;52.10;;;;;;5053522;28;20170;-73
2022/06/15 13:10:54;;;;;;;2.55;1.27;;;22.80;52.10;;;;;;5071468;28;20177;-74
2022/06/15 13:13:33;;;;;;;2.95;1.40;;;22.80;52.00;;;;;;5073662;28;20181;-75
2022/06/15 13:16:02;;;;;;;3.63;1.80;;;22.80;51.90;;;;;;5066363;28;20186;-74
2022/06/15 13:18:42;;;;;;;2.28;1.50;;;22.80;51.70;;;;;;5055689;28;20542;-73
2022/06/15 13:21:07;;;;;;;2.25;1.33;;;22.80;51.60;;;;;;5054190;28;20688;-74
2022/06/15 13:23:39;;;;;;;4.50;1.48;;;22.90;51.50;;;;;;5053429;28;20175;-74
2022/06/15 13:26:08;;;;;;;3.35;1.92;;;22.90;51.40;;;;;;5054280;28;20179;-73